Villisca, IA

3:22 PM CDT on September 22, 2014 (GMT -0500)
Shenandoah Municipal | Change Station
CLOSE
Current Station
Airport
Location: Shenandoah,
Elevation: 971 ft
Nearby Weather Stations

Elev 971 ft 40.75 °N, 95.41 °W | Updated 7 minutes ago

Clear
Clear
75 °F
Feels Like 75 °F
N
6
Wind Variable Wind from SSE

Today
High -- | Low -- °F
--% Chance of Precip.
Yesterday
High -- | Low -- °F
Precip. -- in
7:07 AM 7:17 PM
Waning Crescent, 2% visible
Pressure 30.25 in
Visibility 10.0 miles
Clouds Clear
Dew Point 50 °F
Humidity 41%
Rainfall 0.00 in
Snow Depth Not available.
UV 5 out of 12
Pollen 5.20 out of 12
Air Quality Not available.
Flu Activity Not available.
METAR KSDA 222015Z AUTO 15005KT 10SM CLR 24/10 A3025 RMK AO2

More Conditions Fewer Conditions

Pressure 30.25 in
Visibility 10.0 miles
Clouds Clear
Dew Point 50 °F
Humidity 41%
Rainfall 0.00 in
Snow Depth Not available.
UV 5 out of 12
Pollen 5.20 out of 12
Air Quality Not available.
Flu Activity Not available.
METAR KSDA 222015Z AUTO 15005KT 10SM CLR 24/10 A3025 RMK AO2

More Conditions Fewer Conditions

10-Day Weather Forecast

Almanac

Astronomy

Sep. 22, 2014 Rise Set
Actual Time 7:07 AM CDT 7:17 PM CDT
Civil Twilight 6:40 AM CDT 7:44 PM CDT
Nautical Twilight 6:07 AM CDT 8:16 PM CDT
Astronomical Twilight 5:35 AM CDT 8:49 PM CDT
Moon 5:36 AM CDT 6:25 PM CDT
Length of Visible Light 13h 04m
Length of Day
12h 09m
Tomorrow will be 2m 42s shorter.
Waning Crescent, 2% of the Moon is Illuminated
Today
Waning Crescent
Sep 24
New
Oct 1
First Quarter
Oct 8
Full
Oct 15
Last Quarter

Today's Extremes

State Highs State Lows

Community

WunderPhotos

Upload Photos

1,755,523 photos uploaded!

WunderBlogs® & News

Nearby

Snow Depth

Station Depth Elevation
No new snow has been reported.

Earthquake Activity

City Distance Mag. Time & Date
No recent earthquake activity has been reported nearby.
Minimum magnitude displayed is 2.5.

Coastal Water Temperatures

Place Temperature
No Stations Reporting

Nearby Weather Stations